Time;durP1;ratioP1;P1;durP2;ratioP2;P2;SDS_P1;SDS_P2;PMS_P1;PMS_P2;Temp;Humidity;BMP_temperature;BMP_pressure;BME280_temperature;BME280_humidity;BME280_pressure;Samples;Min_cycle;Max_cycle;Signal;HPM_P1;HPM_P2
2022/02/02 00:00:20;;;;;;;1999.90;999.90;;;8.60;99.90;;;;;;5093767;28;20376;-77
2022/02/02 00:02:52;;;;;;;1999.90;999.90;;;8.70;99.90;;;;;;5093596;28;20456;-76
2022/02/02 00:07:57;;;;;;;1999.90;999.90;;;8.70;99.90;;;;;;5093630;28;20396;-77
2022/02/02 00:13:00;;;;;;;1999.90;999.90;;;8.60;99.90;;;;;;5096385;28;20456;-76
2022/02/02 00:15:55;;;;;;;1999.90;999.90;;;8.60;99.90;;;;;;5093158;28;20508;-76
2022/02/02 00:21:06;;;;;;;1999.90;999.90;;;8.40;99.90;;;;;;5093524;28;20392;-76
2022/02/02 00:23:39;;;;;;;1999.90;999.90;;;8.30;99.90;;;;;;5093182;28;20511;-76
2022/02/02 00:26:12;;;;;;;1999.90;999.90;;;8.20;99.90;;;;;;5092963;28;20369;-77
2022/02/02 00:28:43;;;;;;;1999.90;999.90;;;8.20;99.90;;;;;;5093175;28;20417;-76
2022/02/02 00:31:15;;;;;;;1999.90;999.90;;;8.20;99.90;;;;;;5093059;28;20751;-76
2022/02/02 00:33:48;;;;;;;1999.90;999.90;;;8.20;99.90;;;;;;5092995;28;20498;-76
2022/02/02 00:36:20;;;;;;;1999.90;999.90;;;8.20;99.90;;;;;;5092792;28;20399;-77
2022/02/02 00:38:45;;;;;;;1999.90;999.90;;;8.20;99.90;;;;;;5093121;28;20400;-76
2022/02/02 00:41:11;;;;;;;1999.90;999.90;;;8.20;99.90;;;;;;5092956;28;20401;-76
2022/02/02 00:43:40;;;;;;;1999.90;999.90;;;8.20;99.90;;;;;;5092635;28;20550;-77
2022/02/02 00:46:05;;;;;;;1999.90;999.90;;;8.30;99.90;;;;;;5092546;28;20440;-76
2022/02/02 00:48:33;;;;;;;1999.90;999.90;;;8.30;99.90;;;;;;5092880;28;20429;-77
2022/02/02 00:50:59;;;;;;;1999.90;999.90;;;8.30;99.90;;;;;;5092875;28;20254;-76
2022/02/02 00:53:24;;;;;;;1999.90;999.90;;;8.30;99.90;;;;;;5092701;28;20927;-76
2022/02/02 00:55:51;;;;;;;1999.90;999.90;;;8.30;99.90;;;;;;5092581;28;20548;-77
2022/02/02 00:58:16;;;;;;;1999.90;999.90;;;8.30;99.90;;;;;;5092562;28;20564;-76
2022/02/02 01:00:42;;;;;;;1999.90;999.90;;;8.30;99.90;;;;;;5092762;28;20397;-76
2022/02/02 01:03:08;;;;;;;1999.90;999.90;;;8.40;99.90;;;;;;5092458;28;20187;-76
2022/02/02 01:05:33;;;;;;;1999.90;999.90;;;8.40;99.90;;;;;;5092270;28;20174;-76
2022/02/02 01:10:57;;;;;;;1999.90;999.90;;;8.30;99.90;;;;;;5092485;28;20387;-77
2022/02/02 01:20:52;;;;;;;1999.90;999.90;;;8.20;99.90;;;;;;5092690;28;20616;-76
2022/02/02 01:28:33;;;;;;;1999.90;999.90;;;8.20;99.90;;;;;;5092590;28;20464;-76
2022/02/02 01:31:02;;;;;;;1999.90;999.90;;;8.30;99.90;;;;;;5092357;28;20848;-77
2022/02/02 01:33:29;;;;;;;1999.90;999.90;;;8.20;99.90;;;;;;5091949;28;20454;-76
2022/02/02 01:35:55;;;;;;;1999.90;999.90;;;8.30;99.90;;;;;;5091736;28;20404;-76
2022/02/02 01:38:24;;;;;;;1999.90;999.90;;;8.30;99.90;;;;;;5092038;28;20403;-76
2022/02/02 01:40:58;;;;;;;1999.90;999.90;;;8.30;99.90;;;;;;5092073;28;20404;-76
2022/02/02 01:43:37;;;;;;;1999.90;999.90;;;8.30;99.90;;;;;;5091904;28;20448;-76
2022/02/02 01:46:11;;;;;;;1999.90;999.90;;;8.20;99.90;;;;;;5091665;28;20471;-77
2022/02/02 01:51:28;;;;;;;1999.90;999.90;;;8.00;99.90;;;;;;5092026;28;20400;-77
2022/02/02 01:56:19;;;;;;;1999.90;999.90;;;7.90;99.90;;;;;;5091662;28;20458;-75
2022/02/02 02:01:12;;;;;;;1999.90;999.90;;;7.80;99.90;;;;;;5092192;28;20169;-76
2022/02/02 02:03:38;;;;;;;1999.90;999.90;;;7.80;99.90;;;;;;5091725;28;20428;-75
2022/02/02 02:06:05;;;;;;;1999.90;999.90;;;7.80;99.90;;;;;;5091511;28;20404;-76
2022/02/02 02:08:32;;;;;;;1999.90;999.90;;;7.80;99.90;;;;;;5091797;28;20419;-77
2022/02/02 02:10:58;;;;;;;1999.90;999.90;;;7.80;99.90;;;;;;5092138;28;20461;-77
2022/02/02 02:16:09;;;;;;;1999.90;999.90;;;7.80;99.90;;;;;;5096148;28;20385;-77
2022/02/02 02:18:34;;;;;;;1999.90;999.90;;;7.90;99.90;;;;;;5101248;28;20889;-77
2022/02/02 02:21:00;;;;;;;1999.90;999.90;;;7.90;99.90;;;;;;5100722;28;20162;-77
2022/02/02 02:23:26;;;;;;;1999.90;999.90;;;7.90;99.90;;;;;;5101846;28;20248;-77
2022/02/02 02:25:52;;;;;;;1999.90;999.90;;;7.90;99.90;;;;;;5100673;28;20400;-77
2022/02/02 02:31:30;;;;;;;1999.90;999.90;;;8.00;99.90;;;;;;5048414;28;20411;-78
2022/02/02 02:57:53;;;;;;;1999.90;999.90;;;8.00;99.90;;;;;;5103959;28;20384;-77
2022/02/02 03:30:12;;;;;;;1999.90;999.90;;;8.10;99.90;;;;;;5101305;28;20421;-77
2022/02/02 03:34:29;;;;;;;1999.90;999.90;;;8.10;99.90;;;;;;5101952;28;20561;-78
2022/02/02 04:01:46;;;;;;;1999.90;999.90;;;8.10;99.90;;;;;;5075118;28;20595;-77
2022/02/02 04:06:11;;;;;;;1999.90;999.90;;;8.20;99.90;;;;;;5100194;28;20412;-77
2022/02/02 04:08:38;;;;;;;1999.90;999.90;;;8.10;99.90;;;;;;5100257;28;20401;-77
2022/02/02 04:11:15;;;;;;;1999.90;999.90;;;8.10;99.90;;;;;;5097755;28;20428;-76
2022/02/02 04:38:45;;;;;;;1999.90;999.90;;;8.10;99.90;;;;;;5099032;28;20400;-77
2022/02/02 04:54:52;;;;;;;1999.90;999.90;;;8.00;99.90;;;;;;5098483;28;20510;-77
2022/02/02 05:00:23;;;;;;;1999.90;999.90;;;8.00;99.90;;;;;;5097508;28;20404;-77
2022/02/02 05:03:40;;;;;;;1999.90;999.90;;;8.00;99.90;;;;;;5097102;28;20429;-77
2022/02/02 05:08:43;;;;;;;1999.90;999.90;;;8.10;99.90;;;;;;5096492;28;20427;-76
2022/02/02 05:11:31;;;;;;;1999.90;999.90;;;8.00;99.90;;;;;;5094503;28;20373;-77
2022/02/02 05:51:24;;;;;;;1999.90;999.90;;;8.00;99.90;;;;;;5095921;28;20216;-77
2022/02/02 05:53:51;;;;;;;1999.90;999.90;;;8.00;99.90;;;;;;5096575;28;20480;-77
2022/02/02 05:56:17;;;;;;;1999.90;999.90;;;8.00;99.90;;;;;;5095670;28;20408;-77
2022/02/02 05:58:46;;;;;;;1999.90;999.90;;;8.00;99.90;;;;;;5094690;28;20777;-77
2022/02/02 06:01:13;;;;;;;1999.90;999.90;;;8.00;99.90;;;;;;5095431;28;20171;-76
2022/02/02 06:03:53;;;;;;;1999.90;999.90;;;8.00;99.90;;;;;;5099018;28;20462;-77
2022/02/02 06:06:24;;;;;;;1999.90;999.90;;;8.00;99.90;;;;;;5099273;28;20408;-76
2022/02/02 06:08:51;;;;;;;1999.90;999.90;;;8.00;99.90;;;;;;5080393;28;20412;-76
2022/02/02 06:11:22;;;;;;;1999.90;999.90;;;8.00;99.90;;;;;;5099330;28;20411;-77
2022/02/02 06:13:52;;;;;;;1999.90;999.90;;;8.00;99.90;;;;;;5097703;28;20530;-76
2022/02/02 06:16:19;;;;;;;1999.90;999.90;;;8.00;99.90;;;;;;5097284;28;20392;-76
2022/02/02 06:18:46;;;;;;;1999.90;999.90;;;7.90;99.90;;;;;;5097611;28;20419;-77
2022/02/02 06:21:16;;;;;;;1999.90;999.90;;;8.00;99.90;;;;;;5097127;28;20776;-77
2022/02/02 06:24:07;;;;;;;1999.90;999.90;;;8.00;99.90;;;;;;5097445;28;20432;-77
2022/02/02 06:26:35;;;;;;;1999.90;999.90;;;8.00;99.90;;;;;;5097956;28;20396;-77
2022/02/02 06:29:04;;;;;;;1999.90;999.90;;;8.00;99.90;;;;;;5097339;28;20412;-77
2022/02/02 06:31:36;;;;;;;1999.90;999.90;;;8.00;99.90;;;;;;5097097;28;20419;-77
2022/02/02 06:34:05;;;;;;;1999.90;999.90;;;8.00;99.90;;;;;;5096726;28;20452;-76
2022/02/02 06:36:35;;;;;;;1999.90;999.90;;;8.00;99.90;;;;;;5096929;28;20423;-77
2022/02/02 06:39:02;;;;;;;1999.90;999.90;;;8.00;99.90;;;;;;5097802;28;20385;-77
2022/02/02 06:41:28;;;;;;;1999.90;999.90;;;8.00;99.90;;;;;;5097505;28;20404;-76
2022/02/02 06:43:55;;;;;;;1999.90;999.90;;;8.00;99.90;;;;;;5097392;28;20400;-76
2022/02/02 06:46:30;;;;;;;1999.90;999.90;;;8.00;99.90;;;;;;5096445;28;20775;-76
2022/02/02 06:48:56;;;;;;;1999.90;999.90;;;8.00;99.90;;;;;;5097098;28;20424;-77
2022/02/02 06:51:36;;;;;;;1999.90;999.90;;;8.00;99.90;;;;;;5096751;28;20408;-76
2022/02/02 06:54:07;;;;;;;1999.90;999.90;;;8.00;99.90;;;;;;5095591;28;20448;-76
2022/02/02 07:07:46;;;;;;;1999.90;999.90;;;8.00;99.90;;;;;;5096556;28;20400;-77
2022/02/02 07:10:41;;;;;;;1999.90;999.90;;;8.00;99.90;;;;;;5095747;28;20454;-77
2022/02/02 07:34:13;;;;;;;1999.90;999.90;;;7.90;99.90;;;;;;5097701;28;20443;-75
2022/02/02 07:36:42;;;;;;;1999.90;999.90;;;7.90;99.90;;;;;;5095545;28;20395;-76
2022/02/02 07:39:12;;;;;;;1999.90;999.90;;;7.90;99.90;;;;;;5095241;28;20420;-77
2022/02/02 07:41:43;;;;;;;1999.90;999.90;;;7.90;99.90;;;;;;5094474;28;20796;-77
2022/02/02 07:46:38;;;;;;;1999.90;999.90;;;7.90;99.90;;;;;;5094517;28;20412;-76
2022/02/02 07:49:08;;;;;;;1999.90;999.90;;;7.90;99.90;;;;;;5094602;28;20407;-77
2022/02/02 07:51:36;;;;;;;1999.90;999.90;;;7.90;99.90;;;;;;5094503;28;20407;-76
2022/02/02 07:54:04;;;;;;;1999.90;999.90;;;8.00;99.90;;;;;;5093946;28;20452;-77
2022/02/02 07:56:40;;;;;;;1999.90;999.90;;;8.00;99.90;;;;;;5094816;28;20397;-77
2022/02/02 08:01:44;;;;;;;1999.90;999.90;;;8.00;99.90;;;;;;5094724;28;20408;-77
2022/02/02 08:04:11;;;;;;;1999.90;999.90;;;8.00;99.90;;;;;;5094188;28;20408;-77
2022/02/02 08:06:39;;;;;;;1999.90;999.90;;;8.00;99.90;;;;;;5094496;28;20508;-76
2022/02/02 08:09:06;;;;;;;1999.90;999.90;;;8.00;99.90;;;;;;5094642;28;20483;-77
2022/02/02 08:11:34;;;;;;;1999.90;999.90;;;8.00;99.90;;;;;;5093748;28;20404;-76
2022/02/02 08:14:02;;;;;;;1999.90;999.90;;;8.10;99.90;;;;;;5093597;28;20953;-76
2022/02/02 08:16:29;;;;;;;1999.90;999.90;;;8.10;99.90;;;;;;5093869;28;20405;-77
2022/02/02 08:18:55;;;;;;;1999.90;999.90;;;8.00;99.90;;;;;;5093855;28;20907;-77
2022/02/02 08:21:22;;;;;;;1999.90;999.90;;;8.10;99.90;;;;;;5093924;28;20410;-77
2022/02/02 08:23:49;;;;;;;1999.90;999.90;;;8.10;99.90;;;;;;5093504;28;20186;-76
2022/02/02 08:26:15;;;;;;;1999.90;999.90;;;8.20;99.90;;;;;;5092819;28;20643;-76
2022/02/02 08:28:42;;;;;;;1999.90;999.90;;;8.20;99.90;;;;;;5093597;28;20434;-77
2022/02/02 08:31:08;;;;;;;1999.90;999.90;;;8.20;99.90;;;;;;5093444;28;20416;-77
2022/02/02 08:33:38;;;;;;;1999.90;999.90;;;8.20;99.90;;;;;;5092923;28;20453;-76
2022/02/02 08:36:17;;;;;;;1999.90;999.90;;;8.10;99.90;;;;;;5092943;28;20392;-77
2022/02/02 08:41:13;;;;;;;1999.90;999.90;;;8.10;99.90;;;;;;5093152;28;20405;-77
2022/02/02 08:43:48;;;;;;;1999.90;999.90;;;8.20;99.90;;;;;;5093194;28;20440;-76
2022/02/02 08:46:24;;;;;;;1999.90;999.90;;;8.20;99.90;;;;;;5092814;28;20388;-77
2022/02/02 08:48:53;;;;;;;1999.90;999.90;;;8.20;99.90;;;;;;5093029;28;20400;-77
2022/02/02 08:51:21;;;;;;;1999.90;999.90;;;8.30;99.90;;;;;;5093163;28;20905;-76
2022/02/02 08:57:12;;;;;;;1999.90;999.90;;;8.40;99.90;;;;;;5087898;28;20488;-77
2022/02/02 08:59:57;;;;;;;1999.90;999.90;;;8.40;99.90;;;;;;5092365;28;20420;-77
2022/02/02 09:02:27;;;;;;;1999.90;999.90;;;8.50;99.90;;;;;;5092603;28;20511;-76
2022/02/02 09:07:38;;;;;;;1999.90;999.90;;;8.50;99.90;;;;;;5092784;28;20439;-76
2022/02/02 09:10:19;;;;;;;1999.90;999.90;;;8.50;99.90;;;;;;5092467;28;20451;-76
2022/02/02 09:21:45;;;;;;;1999.90;999.90;;;8.70;99.90;;;;;;5092502;28;20368;-77
2022/02/02 09:24:21;;;;;;;1999.90;999.90;;;8.60;99.90;;;;;;5092045;28;20432;-76
2022/02/02 09:34:14;;;;;;;1999.90;999.90;;;8.60;99.90;;;;;;5092084;28;20805;-77
2022/02/02 09:36:43;;;;;;;1999.90;999.90;;;8.60;99.90;;;;;;5091596;28;20702;-77
2022/02/02 09:39:34;;;;;;;1999.90;999.90;;;8.70;99.90;;;;;;5091898;28;20802;-76
2022/02/02 09:42:15;;;;;;;1999.90;999.90;;;8.80;99.90;;;;;;5088732;28;20455;-77
2022/02/02 09:44:44;;;;;;;1999.90;999.90;;;8.90;99.90;;;;;;5073523;28;20408;-76
2022/02/02 09:49:58;;;;;;;1999.90;999.90;;;8.90;99.90;;;;;;5061664;28;20538;-77
2022/02/02 09:52:26;;;;;;;1999.90;999.90;;;9.00;99.90;;;;;;5049758;28;20422;-75
2022/02/02 10:00:18;;;;;;;1999.90;999.90;;;9.20;99.90;;;;;;5052212;28;20947;-77
2022/02/02 10:03:21;;;;;;;1999.90;999.90;;;9.20;99.90;;;;;;5035252;28;20440;-75
2022/02/02 10:06:06;;;;;;;1999.90;999.90;;;9.20;99.90;;;;;;5033382;28;20793;-75
2022/02/02 10:14:32;;;;;;;1999.90;999.90;;;9.30;99.90;;;;;;5051052;28;20484;-75
2022/02/02 10:17:01;;;;;;;1999.90;999.90;;;9.40;99.90;;;;;;5050974;28;20822;-74
2022/02/02 10:19:32;;;;;;;1999.90;999.90;;;9.40;99.90;;;;;;5032353;28;20425;-75
2022/02/02 10:21:59;;;;;;;1999.90;999.90;;;9.40;99.90;;;;;;5033292;28;20435;-74
2022/02/02 10:24:45;;;;;;;1999.90;999.90;;;9.50;99.90;;;;;;5032649;28;20424;-75
2022/02/02 10:27:38;;;;;;;1999.90;999.90;;;9.50;99.90;;;;;;5051351;28;20424;-74
2022/02/02 10:30:06;;;;;;;1999.90;999.90;;;9.50;99.90;;;;;;5033494;28;20422;-74
2022/02/02 10:32:37;;;;;;;1999.90;999.90;;;9.50;99.90;;;;;;5050496;28;20426;-75
2022/02/02 10:35:08;;;;;;;1999.90;999.90;;;9.50;99.90;;;;;;5050893;28;20465;-75
2022/02/02 10:37:36;;;;;;;1999.90;999.90;;;9.30;99.90;;;;;;5033494;28;20949;-76
2022/02/02 10:40:29;;;;;;;1999.90;999.90;;;9.30;99.90;;;;;;5057314;28;20451;-76
2022/02/02 10:42:56;;;;;;;1999.90;999.90;;;9.30;99.90;;;;;;5051580;28;21040;-76
2022/02/02 10:45:28;;;;;;;1999.90;999.90;;;9.20;99.90;;;;;;5048613;28;20489;-77
2022/02/02 10:48:12;;;;;;;1999.90;999.90;;;9.20;99.90;;;;;;5061159;28;20512;-76
2022/02/02 10:50:48;;;;;;;1999.90;999.90;;;9.20;99.90;;;;;;5077109;28;20427;-76
2022/02/02 10:56:32;;;;;;;1999.90;999.90;;;9.20;99.90;;;;;;5031970;28;20413;-76
2022/02/02 11:07:00;;;;;;;1999.90;999.90;;;9.50;99.90;;;;;;5094789;28;20507;-75
2022/02/02 11:09:26;;;;;;;1999.90;999.90;;;9.50;99.90;;;;;;5094092;28;20446;-76
2022/02/02 11:11:55;;;;;;;1999.90;999.90;;;9.50;99.90;;;;;;5094044;28;20437;-76
2022/02/02 11:14:36;;;;;;;1999.90;999.90;;;9.60;99.90;;;;;;5093307;28;20460;-76
2022/02/02 11:17:31;;;;;;;1999.90;999.90;;;9.70;99.90;;;;;;5093912;28;20394;-76
2022/02/02 11:20:06;;;;;;;1999.90;999.90;;;9.80;99.90;;;;;;5093696;28;20899;-76
2022/02/02 11:22:33;;;;;;;1999.90;999.90;;;9.90;99.90;;;;;;5076200;28;20466;-76
2022/02/02 11:25:02;;;;;;;1999.90;999.90;;;9.90;99.90;;;;;;5093602;28;20430;-76
2022/02/02 11:27:39;;;;;;;1999.90;999.90;;;10.00;99.90;;;;;;5094085;28;20405;-76
2022/02/02 11:30:07;;;;;;;1999.90;999.90;;;10.00;99.90;;;;;;5094264;28;20898;-76
2022/02/02 11:32:45;;;;;;;1999.90;999.90;;;10.00;99.90;;;;;;5093363;28;20437;-76
2022/02/02 11:38:21;;;;;;;1999.90;999.90;;;10.00;99.90;;;;;;5093208;28;20765;-76
2022/02/02 11:43:52;;;;;;;1999.90;999.90;;;10.10;99.90;;;;;;5090156;28;20495;-75
2022/02/02 11:47:26;;;;;;;1999.90;999.90;;;10.00;99.90;;;;;;5093059;28;20754;-75
2022/02/02 11:49:51;;;;;;;1999.90;999.90;;;9.80;99.90;;;;;;5085442;28;20424;-75
2022/02/02 11:52:45;;;;;;;1999.90;999.90;;;9.70;99.90;;;;;;5093536;28;20420;-76
2022/02/02 11:55:11;;;;;;;1999.90;999.90;;;9.80;99.90;;;;;;5093060;28;20983;-75
2022/02/02 11:58:15;;;;;;;1999.90;999.90;;;10.00;99.90;;;;;;5093563;28;20398;-76
2022/02/02 12:09:06;;;;;;;1999.90;999.90;;;11.80;99.90;;;;;;5093162;28;20777;-75
2022/02/02 12:18:59;;;;;;;1999.90;999.90;;;11.80;99.90;;;;;;5093366;28;20453;-75
2022/02/02 12:53:39;;;;;;;1999.90;999.90;;;10.70;99.90;;;;;;5092683;28;20921;-75
2022/02/02 12:56:50;;;;;;;1999.90;999.90;;;10.70;99.90;;;;;;5092595;28;20472;-76
2022/02/02 13:02:13;;;;;;;1999.90;999.90;;;11.40;99.90;;;;;;5092985;28;20412;-75
2022/02/02 13:04:41;;;;;;;1999.90;999.90;;;11.60;99.90;;;;;;5092106;28;20411;-76
2022/02/02 13:07:13;;;;;;;1999.90;999.90;;;12.00;99.90;;;;;;5091952;28;20904;-76
2022/02/02 13:09:42;;;;;;;1999.90;999.90;;;12.70;99.90;;;;;;5091946;28;20397;-75
2022/02/02 13:12:28;;;;;;;1999.90;999.90;;;13.20;99.90;;;;;;5092033;28;20424;-74
2022/02/02 13:20:35;;;;;;;1999.90;999.90;;;13.00;99.90;;;;;;5092448;28;20395;-74
2022/02/02 13:23:12;;;;;;;1999.90;999.90;;;12.40;99.90;;;;;;5073130;28;20439;-75
2022/02/02 13:25:41;;;;;;;1999.90;999.90;;;12.10;99.90;;;;;;5091861;28;20951;-74
2022/02/02 13:28:09;;;;;;;1999.90;999.90;;;11.90;99.90;;;;;;5073783;28;20987;-74
2022/02/02 13:30:48;;;;;;;1999.90;999.90;;;11.80;99.90;;;;;;5073279;28;20414;-74
2022/02/02 13:33:27;;;;;;;1999.90;999.90;;;11.40;99.90;;;;;;5073730;28;20443;-74
2022/02/02 13:39:23;;;;;;;1999.90;999.90;;;11.30;99.90;;;;;;5091853;28;20395;-73
2022/02/02 14:01:45;;;;;;;1999.90;999.90;;;10.60;99.90;;;;;;5091852;28;20956;-75
2022/02/02 14:09:36;;;;;;;1999.90;999.90;;;10.50;99.90;;;;;;5091915;28;20919;-76
2022/02/02 14:31:15;;;;;;;1999.90;999.90;;;10.60;99.90;;;;;;5095500;28;20414;-74
2022/02/02 14:33:46;;;;;;;1999.90;999.90;;;10.70;99.90;;;;;;5077089;28;20456;-74
2022/02/02 14:36:16;;;;;;;1999.90;999.90;;;10.60;99.90;;;;;;5075906;28;20433;-74
2022/02/02 14:43:58;;;;;;;1999.90;999.90;;;10.40;99.90;;;;;;5094148;28;20446;-75
2022/02/02 14:46:45;;;;;;;1999.90;999.90;;;10.50;99.90;;;;;;5094975;28;20417;-74
2022/02/02 14:49:27;;;;;;;1999.90;999.90;;;10.50;99.90;;;;;;5095027;28;20502;-74
2022/02/02 14:52:04;;;;;;;1999.90;999.90;;;10.50;99.90;;;;;;5076132;28;20497;-74
2022/02/02 15:09:01;;;;;;;1999.90;999.90;;;10.30;99.90;;;;;;5095009;28;20398;-77
2022/02/02 15:29:47;;;;;;;1999.90;999.90;;;10.20;99.90;;;;;;5093929;28;20393;-77
2022/02/02 15:32:13;;;;;;;1999.90;999.90;;;10.20;99.90;;;;;;5094330;28;20428;-77
2022/02/02 15:34:46;;;;;;;1999.90;999.90;;;10.20;99.90;;;;;;5092985;28;20442;-77
2022/02/02 15:39:45;;;;;;;1999.90;999.90;;;10.00;99.90;;;;;;5094081;28;20397;-77
2022/02/02 15:58:18;;;;;;;1999.90;999.90;;;9.80;99.90;;;;;;5093333;28;20404;-77
2022/02/02 16:06:05;;;;;;;1999.90;999.90;;;9.80;99.90;;;;;;5092983;28;20937;-77
2022/02/02 16:08:31;;;;;;;1999.90;999.90;;;9.90;99.90;;;;;;5093655;28;20453;-77
2022/02/02 16:13:30;;;;;;;1999.90;999.90;;;9.80;99.90;;;;;;5093053;28;20202;-77
2022/02/02 16:16:15;;;;;;;1999.90;999.90;;;9.80;99.90;;;;;;5093175;28;20163;-77
2022/02/02 16:18:49;;;;;;;1999.90;999.90;;;9.80;99.90;;;;;;5075353;28;20432;-77
2022/02/02 16:38:14;;;;;;;1999.90;999.90;;;9.60;99.90;;;;;;5073014;28;20409;-75
2022/02/02 16:40:43;;;;;;;1999.90;999.90;;;9.50;99.90;;;;;;5055401;28;20406;-75
2022/02/02 16:43:13;;;;;;;1999.90;999.90;;;9.50;99.90;;;;;;5072019;28;20444;-75
2022/02/02 16:45:58;;;;;;;1999.90;999.90;;;9.40;99.90;;;;;;5072301;28;20422;-76
2022/02/02 16:48:24;;;;;;;1999.90;999.90;;;9.40;99.90;;;;;;5053748;28;20796;-75
2022/02/02 16:51:05;;;;;;;1999.90;999.90;;;9.40;99.90;;;;;;5072135;28;20405;-76
2022/02/02 16:53:40;;;;;;;1999.90;999.90;;;9.30;99.90;;;;;;5054305;28;20527;-76
2022/02/02 16:56:21;;;;;;;1999.90;999.90;;;9.20;99.90;;;;;;5053982;28;20410;-75
2022/02/02 17:24:30;;;;;;;1999.90;999.90;;;8.80;99.90;;;;;;5071482;28;20816;-75
2022/02/02 17:29:52;;;;;;;1999.90;999.90;;;8.80;99.90;;;;;;5071516;28;20552;-75
2022/02/02 17:35:11;;;;;;;1999.90;999.90;;;9.00;99.90;;;;;;5071406;28;20456;-75
2022/02/02 17:40:17;;;;;;;1999.90;999.90;;;9.00;99.90;;;;;;5072158;28;21088;-75
2022/02/02 17:45:38;;;;;;;1999.90;999.90;;;9.00;99.90;;;;;;5071906;28;20426;-76
2022/02/02 18:18:43;;;;;;;1999.90;999.90;;;8.90;99.90;;;;;;5074956;28;20466;-75
2022/02/02 18:20:48;;;;;;;1999.90;999.90;;;9.00;99.90;;;;;;5074601;28;20172;-76
2022/02/02 18:26:08;;;;;;;1999.90;999.90;;;9.00;99.90;;;;;;5074812;28;20409;-75
2022/02/02 18:31:34;;;;;;;1999.90;999.90;;;9.00;99.90;;;;;;5074753;28;20405;-75
2022/02/02 20:08:39;;;;;;;1999.90;999.90;;;9.50;99.90;;;;;;5073567;28;20406;-75
2022/02/02 20:11:08;;;;;;;1999.90;999.90;;;9.40;99.90;;;;;;5072760;28;20415;-75
2022/02/02 20:13:35;;;;;;;1999.90;999.90;;;9.40;99.90;;;;;;5073020;28;20438;-75
2022/02/02 20:16:02;;;;;;;1999.90;999.90;;;9.40;99.90;;;;;;5072902;28;20403;-76
2022/02/02 20:21:56;;;;;;;1999.90;999.90;;;9.50;99.90;;;;;;5000692;28;20421;-75
2022/02/02 20:24:25;;;;;;;1999.90;999.90;;;9.50;99.90;;;;;;5072287;28;20406;-75
2022/02/02 20:26:51;;;;;;;1999.90;999.90;;;9.50;99.90;;;;;;5072949;28;20415;-75
2022/02/02 20:29:17;;;;;;;1999.90;999.90;;;9.50;99.90;;;;;;5072311;28;20410;-75
2022/02/02 20:31:43;;;;;;;1999.90;999.90;;;9.40;99.90;;;;;;5072419;28;20191;-75
2022/02/02 20:34:11;;;;;;;1999.90;999.90;;;9.40;99.90;;;;;;5072567;28;20521;-75
2022/02/02 20:36:39;;;;;;;1999.90;999.90;;;9.40;99.90;;;;;;5072766;28;20160;-75
2022/02/02 20:39:11;;;;;;;1999.90;999.90;;;9.30;99.90;;;;;;5072331;28;20402;-76
2022/02/02 20:41:57;;;;;;;1999.90;999.90;;;9.30;99.90;;;;;;5072249;28;20391;-75
2022/02/02 20:44:41;;;;;;;1999.90;999.90;;;9.30;99.90;;;;;;5054593;28;20513;-75
2022/02/02 21:09:00;;;;;;;1999.90;999.90;;;9.30;99.90;;;;;;5071789;28;20435;-74
2022/02/02 21:11:56;;;;;;;1999.90;999.90;;;9.40;99.90;;;;;;5071763;28;20425;-74
2022/02/02 21:14:24;;;;;;;1999.90;999.90;;;9.40;99.90;;;;;;5071865;28;20986;-74
2022/02/02 21:16:50;;;;;;;1999.90;999.90;;;9.40;99.90;;;;;;5071819;28;20412;-75
2022/02/02 21:19:47;;;;;;;1999.90;999.90;;;9.40;99.90;;;;;;5072167;28;20398;-75
2022/02/02 21:22:09;;;;;;;1999.90;999.90;;;9.40;99.90;;;;;;5070925;28;20187;-74
2022/02/02 21:24:50;;;;;;;1999.90;999.90;;;9.40;99.90;;;;;;5071447;28;20444;-74
2022/02/02 21:27:22;;;;;;;1999.90;999.90;;;9.40;99.90;;;;;;5071920;28;20404;-75
2022/02/02 21:29:48;;;;;;;1999.90;999.90;;;9.40;99.90;;;;;;5053454;28;20513;-75
2022/02/02 21:32:15;;;;;;;1999.90;999.90;;;9.40;99.90;;;;;;5071283;28;20501;-75
2022/02/02 21:34:42;;;;;;;1999.90;999.90;;;9.40;99.90;;;;;;5071040;28;20540;-74
2022/02/02 21:37:09;;;;;;;1999.90;999.90;;;9.40;99.90;;;;;;5072000;28;20874;-73
2022/02/02 21:39:38;;;;;;;1999.90;999.90;;;9.40;99.90;;;;;;5071747;28;20493;-73
2022/02/02 21:42:04;;;;;;;1999.90;999.90;;;9.40;99.90;;;;;;5071545;28;21137;-73
2022/02/02 21:44:30;;;;;;;1999.90;999.90;;;9.40;99.90;;;;;;5071661;28;20415;-74
2022/02/02 21:46:57;;;;;;;1999.90;999.90;;;9.40;99.90;;;;;;5071684;28;20398;-74
2022/02/02 21:49:24;;;;;;;1999.90;999.90;;;9.40;99.90;;;;;;5071790;28;20208;-74
2022/02/02 21:52:03;;;;;;;1999.90;999.90;;;9.40;99.90;;;;;;5071161;28;20412;-75
2022/02/02 21:54:29;;;;;;;1999.90;999.90;;;9.40;99.90;;;;;;5070963;28;20445;-75
2022/02/02 21:56:56;;;;;;;1999.90;999.90;;;9.40;99.90;;;;;;5071708;28;20405;-75
2022/02/02 21:59:22;;;;;;;1999.90;999.90;;;9.40;99.90;;;;;;5065289;28;20763;-76
2022/02/02 22:01:47;;;;;;;1999.90;999.90;;;9.40;99.90;;;;;;5067027;28;20411;-75
2022/02/02 22:04:13;;;;;;;1999.90;999.90;;;9.40;99.90;;;;;;5066615;28;20619;-74
2022/02/02 22:06:38;;;;;;;1999.90;999.90;;;9.50;99.90;;;;;;5071234;28;20177;-74
2022/02/02 22:09:04;;;;;;;1999.90;999.90;;;9.50;99.90;;;;;;5071007;28;20192;-73
2022/02/02 22:11:30;;;;;;;1999.90;999.90;;;9.40;99.90;;;;;;5070567;28;20264;-74
2022/02/02 22:14:18;;;;;;;1999.90;999.90;;;9.40;99.90;;;;;;5071418;28;20456;-75
2022/02/02 22:16:46;;;;;;;1999.90;999.90;;;9.40;99.90;;;;;;5071398;28;20421;-75
2022/02/02 22:19:12;;;;;;;1999.90;999.90;;;9.40;99.90;;;;;;5071613;28;20484;-75
2022/02/02 22:21:37;;;;;;;1999.90;999.90;;;9.40;99.90;;;;;;5071166;28;20400;-75
2022/02/02 22:24:03;;;;;;;1999.90;999.90;;;9.40;99.90;;;;;;5071384;28;20178;-75
2022/02/02 22:26:29;;;;;;;1999.90;999.90;;;9.40;99.90;;;;;;5071663;28;20601;-74
2022/02/02 22:28:55;;;;;;;1999.90;999.90;;;9.40;99.90;;;;;;5071419;28;20917;-75
2022/02/02 22:31:21;;;;;;;1999.90;999.90;;;9.50;99.90;;;;;;5052500;28;20412;-75
2022/02/02 22:33:47;;;;;;;1999.90;999.90;;;9.50;99.90;;;;;;5057633;28;20919;-75
2022/02/02 22:36:14;;;;;;;1999.90;999.90;;;9.60;99.90;;;;;;5063379;28;20407;-75
2022/02/02 22:38:42;;;;;;;1999.90;999.90;;;9.60;99.90;;;;;;5071323;28;20164;-75
2022/02/02 22:41:09;;;;;;;1999.90;999.90;;;9.60;99.90;;;;;;5071244;28;20398;-74
2022/02/02 22:43:42;;;;;;;1999.90;999.90;;;9.60;99.90;;;;;;5071108;28;20447;-75
2022/02/02 22:46:08;;;;;;;1999.90;999.90;;;9.60;99.90;;;;;;5074697;28;20459;-75
2022/02/02 22:48:36;;;;;;;1999.90;999.90;;;9.50;99.90;;;;;;5063460;28;20415;-76
2022/02/02 22:51:02;;;;;;;1999.90;999.90;;;9.40;99.90;;;;;;5095191;28;20802;-76
2022/02/02 22:53:28;;;;;;;1999.90;999.90;;;9.50;99.90;;;;;;5095010;28;20899;-75
2022/02/02 22:55:54;;;;;;;1999.90;999.90;;;9.50;99.90;;;;;;5094842;28;20459;-76
2022/02/02 22:58:19;;;;;;;1999.90;999.90;;;9.40;99.90;;;;;;5095021;28;20399;-76
2022/02/02 23:00:47;;;;;;;1999.90;999.90;;;9.40;99.90;;;;;;5095107;28;20166;-76
2022/02/02 23:03:16;;;;;;;1999.90;999.90;;;9.40;99.90;;;;;;5094924;28;20183;-76
2022/02/02 23:05:48;;;;;;;1999.90;999.90;;;9.30;99.90;;;;;;5094608;28;20965;-75
2022/02/02 23:08:16;;;;;;;1999.90;999.90;;;9.30;99.90;;;;;;5094914;28;20430;-76
2022/02/02 23:10:43;;;;;;;1999.90;999.90;;;9.30;99.90;;;;;;5094825;28;20428;-76
2022/02/02 23:13:10;;;;;;;1999.90;999.90;;;9.30;99.90;;;;;;5094817;28;20428;-76
2022/02/02 23:18:11;;;;;;;1999.90;999.90;;;9.30;99.90;;;;;;5094997;28;20400;-75
2022/02/02 23:20:39;;;;;;;1999.90;999.90;;;9.20;99.90;;;;;;5094683;28;20424;-76
2022/02/02 23:23:05;;;;;;;1999.90;999.90;;;9.20;99.90;;;;;;5094603;28;20412;-75
2022/02/02 23:25:33;;;;;;;1999.90;999.90;;;9.20;99.90;;;;;;5094383;28;20410;-76
2022/02/02 23:27:59;;;;;;;1999.90;999.90;;;9.20;99.90;;;;;;5094598;28;20448;-75
2022/02/02 23:30:25;;;;;;;1999.90;999.90;;;9.20;99.90;;;;;;5094566;28;20435;-76
2022/02/02 23:32:51;;;;;;;1999.90;999.90;;;9.20;99.90;;;;;;5094678;28;20786;-76
2022/02/02 23:35:18;;;;;;;1999.90;999.90;;;9.20;99.90;;;;;;5094124;28;20445;-75
2022/02/02 23:37:44;;;;;;;1999.90;999.90;;;9.20;99.90;;;;;;5094464;28;20741;-75
2022/02/02 23:40:10;;;;;;;1999.90;999.90;;;9.20;99.90;;;;;;5094464;28;20409;-75